createdAt,value
2018-03-14T00:01:38.370Z,99.90
2018-03-14T00:04:05.916Z,99.90
2018-03-14T00:06:33.443Z,99.90
2018-03-14T00:09:01.741Z,99.90
2018-03-14T00:11:30.052Z,99.90
2018-03-14T00:13:57.585Z,99.90
2018-03-14T00:16:25.131Z,99.90
2018-03-14T00:18:53.411Z,99.90
2018-03-14T00:21:20.935Z,99.90
2018-03-14T00:23:49.245Z,99.90
2018-03-14T00:26:16.765Z,99.90
2018-03-14T00:28:44.315Z,99.90
2018-03-14T00:31:11.831Z,99.90
2018-03-14T00:33:40.119Z,99.90
2018-03-14T00:36:07.668Z,99.90
2018-03-14T00:38:35.191Z,99.90
2018-03-14T00:41:02.728Z,99.90
2018-03-14T00:43:31.016Z,99.90
2018-03-14T00:45:59.314Z,99.90
2018-03-14T00:48:27.620Z,99.90
2018-03-14T00:50:55.144Z,99.90
2018-03-14T00:53:23.471Z,99.90
2018-03-14T00:55:50.999Z,99.90
2018-03-14T00:58:18.517Z,99.90
2018-03-14T01:00:46.059Z,99.90
2018-03-14T01:03:14.347Z,99.90
2018-03-14T01:05:43.670Z,99.90
2018-03-14T01:08:11.827Z,99.90
2018-03-14T01:10:39.380Z,99.90
2018-03-14T01:13:06.927Z,99.90
2018-03-14T01:15:34.450Z,99.90
2018-03-14T01:18:02.278Z,99.90
2018-03-14T01:20:29.801Z,99.90
2018-03-14T01:22:58.092Z,99.90
2018-03-14T01:25:26.884Z,99.90
2018-03-14T01:27:55.171Z,99.90
2018-03-14T01:30:22.740Z,99.90
2018-03-14T01:32:50.263Z,99.90
2018-03-14T01:35:17.784Z,99.90
2018-03-14T01:37:46.093Z,99.90
2018-03-14T01:40:14.382Z,99.90
2018-03-14T01:42:42.696Z,99.90
2018-03-14T01:45:10.220Z,99.90
2018-03-14T01:47:37.734Z,99.90
2018-03-14T01:50:05.281Z,99.90
2018-03-14T01:52:33.324Z,99.90
2018-03-14T01:55:00.873Z,99.90
2018-03-14T01:57:28.395Z,99.90
2018-03-14T01:59:56.683Z,99.90
2018-03-14T02:02:24.992Z,99.90
2018-03-14T02:04:52.519Z,99.90
2018-03-14T02:07:20.075Z,99.90
2018-03-14T02:09:48.369Z,99.90
2018-03-14T02:12:17.403Z,99.90
2018-03-14T02:14:46.011Z,99.90
2018-03-14T02:17:14.300Z,99.90
2018-03-14T02:19:42.591Z,99.90
2018-03-14T02:22:10.158Z,99.90
2018-03-14T02:24:38.445Z,99.90
2018-03-14T02:27:06.738Z,99.90
2018-03-14T02:29:34.290Z,99.90
2018-03-14T02:32:02.583Z,99.90
2018-03-14T02:34:30.875Z,99.90
2018-03-14T02:37:02.300Z,99.90
2018-03-14T02:39:29.821Z,99.90
2018-03-14T02:41:57.348Z,99.90
2018-03-14T02:44:24.889Z,99.90
2018-03-14T02:46:52.410Z,99.90
2018-03-14T02:49:19.914Z,99.90
2018-03-14T02:51:47.451Z,99.90
2018-03-14T02:54:14.963Z,99.90
2018-03-14T02:56:42.476Z,99.90
2018-03-14T02:59:10.000Z,99.90
2018-03-14T03:01:38.276Z,99.90
2018-03-14T03:04:06.539Z,99.90
2018-03-14T03:06:34.071Z,99.90
2018-03-14T03:09:01.571Z,99.90
2018-03-14T03:11:29.074Z,99.90
2018-03-14T03:13:57.371Z,99.90
2018-03-14T03:16:25.640Z,99.90
2018-03-14T03:18:53.917Z,99.90
2018-03-14T03:21:21.439Z,99.90
2018-03-14T03:23:48.944Z,99.90
2018-03-14T03:26:16.442Z,99.90
2018-03-14T03:28:44.736Z,99.90
2018-03-14T03:31:13.012Z,99.90
2018-03-14T03:33:40.521Z,99.90
2018-03-14T03:36:08.060Z,99.90
2018-03-14T03:38:36.331Z,99.90
2018-03-14T03:41:03.839Z,99.90
2018-03-14T03:43:31.378Z,99.90
2018-03-14T03:45:58.899Z,99.90
2018-03-14T03:48:26.402Z,99.90
2018-03-14T03:50:53.932Z,99.90
2018-03-14T03:53:21.434Z,99.90
2018-03-14T03:55:48.944Z,99.90
2018-03-14T03:58:17.236Z,99.90
2018-03-14T04:00:45.507Z,99.90
2018-03-14T04:03:13.011Z,99.90
2018-03-14T04:05:40.540Z,99.90
2018-03-14T04:08:08.048Z,99.90
2018-03-14T04:10:35.556Z,99.90
2018-03-14T04:13:03.088Z,99.90
2018-03-14T04:15:30.598Z,99.90
2018-03-14T04:17:58.107Z,99.90
2018-03-14T04:20:26.407Z,99.90
2018-03-14T04:22:54.675Z,99.90
2018-03-14T04:25:22.175Z,99.90
2018-03-14T04:27:49.704Z,99.90
2018-03-14T04:30:17.216Z,99.90
2018-03-14T04:32:44.725Z,99.90
2018-03-14T04:35:13.139Z,99.90
2018-03-14T04:37:40.645Z,99.90
2018-03-14T04:40:08.161Z,99.90
2018-03-14T04:42:35.992Z,99.90
2018-03-14T04:45:03.499Z,99.90
2018-03-14T04:47:30.999Z,99.90
2018-03-14T04:49:58.532Z,99.90
2018-03-14T04:52:26.039Z,99.90
2018-03-14T04:54:53.551Z,99.90
2018-03-14T04:57:21.083Z,99.90
2018-03-14T04:59:48.598Z,99.90
2018-03-14T05:02:16.146Z,99.90
2018-03-14T05:04:43.652Z,99.90
2018-03-14T05:07:11.932Z,99.90
2018-03-14T05:09:39.440Z,99.90
2018-03-14T05:12:06.968Z,99.90
2018-03-14T05:14:34.475Z,99.90
2018-03-14T05:17:01.979Z,99.90
2018-03-14T05:19:30.272Z,99.90
2018-03-14T05:21:57.804Z,99.90
2018-03-14T05:24:25.314Z,99.90
2018-03-14T05:26:53.615Z,99.90
2018-03-14T05:29:21.124Z,99.90
2018-03-14T05:31:48.623Z,99.90
2018-03-14T05:34:16.163Z,99.90
2018-03-14T05:36:43.673Z,99.90
2018-03-14T05:39:11.956Z,99.90
2018-03-14T05:41:40.588Z,99.90
2018-03-14T05:44:08.401Z,99.90
2018-03-14T05:46:37.412Z,99.90
2018-03-14T05:49:04.942Z,99.90
2018-03-14T05:51:32.449Z,99.90
2018-03-14T05:53:59.958Z,99.90
2018-03-14T05:56:28.259Z,99.90
2018-03-14T05:58:55.767Z,99.90
2018-03-14T06:01:23.275Z,99.90
2018-03-14T06:03:51.571Z,99.90
2018-03-14T06:06:19.843Z,99.90
2018-03-14T06:08:47.352Z,99.90
2018-03-14T06:11:17.845Z,99.90
2018-03-14T06:13:46.138Z,99.90
2018-03-14T06:16:13.644Z,99.90
2018-03-14T06:18:41.175Z,99.90
2018-03-14T06:21:08.684Z,99.90
2018-03-14T06:23:36.192Z,99.90
2018-03-14T06:26:03.748Z,99.90
2018-03-14T06:28:31.257Z,99.90
2018-03-14T06:30:58.780Z,99.90
2018-03-14T06:33:26.324Z,99.90
2018-03-14T06:35:54.599Z,99.90
2018-03-14T06:38:22.875Z,99.90
2018-03-14T06:40:50.417Z,99.90
2018-03-14T06:43:17.923Z,99.90
2018-03-14T06:45:46.199Z,99.90
2018-03-14T06:48:13.736Z,99.90
2018-03-14T06:50:41.247Z,99.90
2018-03-14T06:53:08.755Z,99.90
2018-03-14T06:55:36.619Z,99.90
2018-03-14T06:58:04.897Z,99.90
2018-03-14T07:00:45.148Z,99.90
2018-03-14T07:03:24.596Z,99.90
2018-03-14T07:06:04.126Z,99.90
2018-03-14T07:08:32.395Z,99.90
2018-03-14T07:10:59.902Z,99.90
2018-03-14T07:13:28.215Z,99.90
2018-03-14T07:15:56.487Z,99.90
2018-03-14T07:18:23.996Z,99.90
2018-03-14T07:20:51.539Z,99.90
2018-03-14T07:23:20.487Z,99.90
2018-03-14T07:25:47.998Z,99.90
2018-03-14T07:28:15.545Z,99.90
2018-03-14T07:30:43.060Z,99.90
2018-03-14T07:33:11.331Z,99.90
2018-03-14T07:35:39.140Z,99.90
2018-03-14T07:38:06.653Z,99.90
2018-03-14T07:40:34.163Z,99.90
2018-03-14T07:43:02.472Z,99.90
2018-03-14T07:45:29.987Z,99.90
2018-03-14T07:47:57.508Z,99.90
2018-03-14T07:50:25.055Z,99.90
2018-03-14T07:52:53.332Z,99.90
2018-03-14T07:55:20.840Z,99.90
2018-03-14T07:57:48.392Z,99.90
2018-03-14T08:00:16.658Z,98.30
2018-03-14T08:02:44.165Z,98.30
2018-03-14T08:05:11.702Z,97.00
2018-03-14T08:07:39.282Z,96.70
2018-03-14T08:10:06.735Z,99.60
2018-03-14T08:12:34.280Z,98.60
2018-03-14T08:15:01.797Z,92.90
2018-03-14T08:17:30.081Z,93.70
2018-03-14T08:19:58.375Z,92.20
2018-03-14T08:22:26.647Z,93.90
2018-03-14T08:24:54.151Z,93.90
2018-03-14T08:27:22.027Z,93.30
2018-03-14T08:29:49.540Z,96.70
2018-03-14T08:32:17.040Z,96.90
2018-03-14T08:34:44.848Z,97.40
2018-03-14T08:37:12.376Z,96.20
2018-03-14T08:39:39.887Z,97.40
2018-03-14T08:42:07.432Z,93.20
2018-03-14T08:44:34.940Z,91.80
2018-03-14T08:47:03.276Z,93.70
2018-03-14T08:49:31.293Z,91.50
2018-03-14T08:51:59.575Z,93.40
2018-03-14T08:54:27.847Z,94.10
2018-03-14T08:56:55.375Z,94.10
2018-03-14T08:59:22.883Z,94.20
2018-03-14T09:01:50.392Z,94.80
2018-03-14T09:04:17.924Z,94.10
2018-03-14T09:06:46.144Z,93.90
2018-03-14T09:09:13.654Z,94.90
2018-03-14T09:11:41.184Z,94.70
2018-03-14T09:14:08.699Z,93.30
2018-03-14T09:16:36.231Z,93.70
2018-03-14T09:19:03.764Z,95.90
2018-03-14T09:21:31.274Z,94.70
2018-03-14T09:23:58.784Z,94.10
2018-03-14T09:26:26.315Z,92.00
2018-03-14T09:28:53.816Z,88.70
2018-03-14T09:31:21.331Z,84.80
2018-03-14T09:33:49.629Z,82.60
2018-03-14T09:36:17.904Z,83.30
2018-03-14T09:38:46.175Z,77.90
2018-03-14T09:41:14.091Z,78.30
2018-03-14T09:43:41.607Z,78.80
2018-03-14T09:46:09.115Z,76.00
2018-03-14T09:48:37.416Z,76.30
2018-03-14T09:51:04.929Z,76.30
2018-03-14T09:53:32.436Z,74.40
2018-03-14T09:56:00.740Z,82.50
2018-03-14T09:58:29.015Z,84.40
2018-03-14T10:00:57.298Z,84.70
2018-03-14T10:03:25.101Z,84.30
2018-03-14T10:05:55.592Z,77.20
2018-03-14T10:08:23.104Z,81.00
2018-03-14T10:10:50.652Z,78.20
2018-03-14T10:13:18.919Z,75.40
2018-03-14T10:15:46.426Z,68.70
2018-03-14T10:18:15.037Z,68.20
2018-03-14T10:20:42.548Z,68.20
2018-03-14T10:23:10.064Z,70.90
2018-03-14T10:25:38.434Z,74.70
2018-03-14T10:28:05.916Z,74.60
2018-03-14T10:30:34.212Z,75.70
2018-03-14T10:33:02.983Z,71.00
2018-03-14T10:35:30.496Z,70.90
2018-03-14T10:37:58.008Z,68.90
2018-03-14T10:40:25.542Z,74.80
2018-03-14T10:42:53.164Z,74.20
2018-03-14T10:45:20.680Z,73.90
2018-03-14T10:47:48.215Z,72.20
2018-03-14T10:50:16.132Z,75.40
2018-03-14T10:52:43.644Z,73.60
2018-03-14T10:55:11.532Z,71.80
2018-03-14T10:57:39.043Z,71.70
2018-03-14T11:00:06.559Z,71.90
2018-03-14T11:02:34.112Z,68.90
2018-03-14T11:05:01.638Z,70.00
2018-03-14T11:07:30.056Z,76.30
2018-03-14T11:09:57.633Z,75.90
2018-03-14T11:12:25.140Z,75.50
2018-03-14T11:14:52.647Z,74.90
2018-03-14T11:17:22.768Z,66.00
2018-03-14T11:19:50.673Z,66.00
2018-03-14T11:22:18.186Z,67.90
2018-03-14T11:24:45.753Z,68.30
2018-03-14T11:27:13.267Z,67.70
2018-03-14T11:29:41.548Z,73.70
2018-03-14T11:32:09.852Z,69.80
2018-03-14T11:34:38.132Z,62.60
2018-03-14T11:37:06.425Z,65.50
2018-03-14T11:39:33.994Z,65.40
2018-03-14T11:42:02.267Z,65.10
2018-03-14T11:44:29.780Z,65.10
2018-03-14T11:46:57.316Z,63.80
2018-03-14T11:49:25.590Z,66.00
2018-03-14T11:51:53.100Z,65.90
2018-03-14T11:54:20.635Z,64.90
2018-03-14T11:56:48.153Z,67.00
2018-03-14T11:59:16.276Z,68.00
2018-03-14T12:01:43.832Z,67.90
2018-03-14T12:04:11.345Z,63.50
2018-03-14T12:06:39.637Z,61.40
2018-03-14T12:09:08.118Z,58.20
2018-03-14T12:11:36.417Z,58.40
2018-03-14T12:14:04.699Z,58.40
2018-03-14T12:16:33.011Z,58.30
2018-03-14T12:19:00.523Z,58.30
2018-03-14T12:21:28.056Z,56.60
2018-03-14T12:23:56.045Z,53.70
2018-03-14T12:26:23.555Z,57.40
2018-03-14T12:28:51.958Z,57.30
2018-03-14T12:31:19.474Z,54.70
2018-03-14T12:33:47.078Z,53.30
2018-03-14T12:36:14.596Z,54.60
2018-03-14T12:38:42.880Z,53.90
2018-03-14T12:41:10.418Z,53.70
2018-03-14T12:43:38.272Z,55.50
2018-03-14T12:46:05.801Z,55.50
2018-03-14T12:48:34.083Z,54.10
2018-03-14T12:51:02.392Z,51.20
2018-03-14T12:53:29.907Z,51.00
2018-03-14T12:55:57.425Z,50.50
2018-03-14T12:58:24.956Z,49.60
2018-03-14T13:00:53.247Z,53.60
2018-03-14T13:03:21.692Z,53.10
2018-03-14T13:05:49.203Z,50.80
2018-03-14T13:08:16.739Z,50.40
2018-03-14T13:10:44.242Z,50.20
2018-03-14T13:13:11.772Z,49.60
2018-03-14T13:15:39.300Z,48.50
2018-03-14T13:18:07.598Z,46.50
2018-03-14T13:20:35.904Z,48.20
2018-03-14T13:23:03.408Z,48.20
2018-03-14T13:25:30.949Z,47.70
2018-03-14T13:27:58.468Z,51.70
2018-03-14T13:30:25.971Z,51.80
2018-03-14T13:32:54.274Z,49.70
2018-03-14T13:35:22.549Z,50.20
2018-03-14T13:37:50.843Z,51.00
2018-03-14T13:40:19.119Z,51.60
2018-03-14T13:42:46.651Z,51.60
2018-03-14T13:45:14.156Z,47.80
2018-03-14T13:47:41.675Z,49.70
2018-03-14T13:50:09.240Z,54.20
2018-03-14T13:52:36.739Z,45.70
2018-03-14T13:55:04.264Z,49.60
2018-03-14T13:57:32.543Z,48.00
2018-03-14T14:00:00.850Z,49.00
2018-03-14T14:02:28.358Z,48.80
2018-03-14T14:04:55.939Z,47.60
2018-03-14T14:07:23.492Z,46.60
2018-03-14T14:09:50.996Z,51.30
2018-03-14T14:12:18.519Z,52.20
2018-03-14T14:14:46.029Z,53.20
2018-03-14T14:17:13.567Z,56.10
2018-03-14T14:19:41.074Z,57.60
2018-03-14T14:22:08.622Z,55.00
2018-03-14T14:24:36.920Z,55.90
2018-03-14T14:27:04.423Z,56.50
2018-03-14T14:29:32.722Z,58.60
2018-03-14T14:32:01.000Z,60.70
2018-03-14T14:34:29.616Z,56.30
2018-03-14T14:36:57.120Z,56.10
2018-03-14T14:39:24.632Z,54.70
2018-03-14T14:41:52.939Z,52.30
2018-03-14T14:44:21.208Z,48.30
2018-03-14T14:46:48.739Z,48.40
2018-03-14T14:49:16.239Z,50.20
2018-03-14T14:51:43.784Z,51.20
2018-03-14T14:54:11.291Z,50.60
2018-03-14T14:56:39.555Z,50.50
2018-03-14T14:59:07.080Z,50.50
2018-03-14T15:01:34.792Z,50.30
2018-03-14T15:04:02.318Z,52.70
2018-03-14T15:06:29.824Z,52.80
2018-03-14T15:08:57.465Z,48.70
2018-03-14T15:11:24.972Z,51.40
2018-03-14T15:13:52.864Z,51.20
2018-03-14T15:16:20.392Z,50.00
2018-03-14T15:18:47.900Z,49.40
2018-03-14T15:21:15.541Z,51.20
2018-03-14T15:23:42.944Z,54.10
2018-03-14T15:26:11.300Z,49.90
2018-03-14T15:28:38.800Z,51.10
2018-03-14T15:31:06.313Z,52.40
2018-03-14T15:33:34.615Z,55.70
2018-03-14T15:36:02.122Z,55.50
2018-03-14T15:38:29.653Z,54.80
2018-03-14T15:40:57.164Z,53.00
2018-03-14T15:43:24.765Z,54.00
2018-03-14T15:45:52.281Z,55.30
2018-03-14T15:48:19.794Z,55.20
2018-03-14T15:50:47.360Z,54.70
2018-03-14T15:53:14.864Z,56.30
2018-03-14T15:55:43.165Z,56.60
2018-03-14T15:58:10.675Z,56.50
2018-03-14T16:00:38.212Z,55.40
2018-03-14T16:03:05.720Z,55.40
2018-03-14T16:05:33.232Z,54.80
2018-03-14T16:08:01.536Z,55.60
2018-03-14T16:10:29.200Z,55.80
2018-03-14T16:12:56.749Z,57.00
2018-03-14T16:15:24.295Z,56.00
2018-03-14T16:17:51.874Z,56.00
2018-03-14T16:20:19.391Z,55.80
2018-03-14T16:22:46.904Z,62.10
2018-03-14T16:25:14.437Z,56.10
2018-03-14T16:27:41.953Z,55.60
2018-03-14T16:30:09.476Z,56.20
2018-03-14T16:32:36.985Z,57.20
2018-03-14T16:35:04.533Z,57.20
2018-03-14T16:37:32.052Z,57.30
2018-03-14T16:39:59.576Z,59.00
2018-03-14T16:42:27.100Z,57.40
2018-03-14T16:44:55.373Z,59.40
2018-03-14T16:47:22.894Z,59.30
2018-03-14T16:49:50.407Z,59.00
2018-03-14T16:52:17.943Z,59.10
2018-03-14T16:54:45.446Z,61.20
2018-03-14T16:57:12.958Z,59.70
2018-03-14T16:59:40.484Z,60.70
2018-03-14T17:02:08.759Z,62.50
2018-03-14T17:04:36.288Z,62.50
2018-03-14T17:07:03.802Z,63.40
2018-03-14T17:09:31.343Z,63.50
2018-03-14T17:11:58.876Z,65.80
2018-03-14T17:14:27.536Z,65.50
2018-03-14T17:16:54.741Z,65.50
2018-03-14T17:19:23.008Z,69.60
2018-03-14T17:21:50.537Z,69.50
2018-03-14T17:24:18.046Z,67.90
2018-03-14T17:26:45.604Z,68.10
2018-03-14T17:29:13.417Z,67.80
2018-03-14T17:31:41.684Z,70.10
2018-03-14T17:34:09.208Z,70.00
2018-03-14T17:36:36.708Z,69.20
2018-03-14T17:39:04.236Z,71.00
2018-03-14T17:41:31.741Z,70.70
2018-03-14T17:43:59.307Z,71.10
2018-03-14T17:46:26.817Z,71.70
2018-03-14T17:48:54.319Z,72.40
2018-03-14T17:51:21.860Z,73.60
2018-03-14T17:53:49.384Z,72.80
2018-03-14T17:56:16.912Z,75.20
2018-03-14T17:58:45.179Z,74.80
2018-03-14T18:01:12.716Z,74.80
2018-03-14T18:03:40.226Z,74.50
2018-03-14T18:06:07.727Z,75.10
2018-03-14T18:08:35.260Z,74.70
2018-03-14T18:11:02.771Z,75.90
2018-03-14T18:13:30.296Z,76.50
2018-03-14T18:15:57.800Z,77.90
2018-03-14T18:18:26.100Z,77.80
2018-03-14T18:20:53.613Z,77.80
2018-03-14T18:23:21.116Z,79.20
2018-03-14T18:25:49.416Z,78.90
2018-03-14T18:28:17.683Z,78.90
2018-03-14T18:30:45.207Z,78.90
2018-03-14T18:33:12.709Z,80.20
2018-03-14T18:35:40.252Z,80.30
2018-03-14T18:38:07.768Z,80.80
2018-03-14T18:40:35.280Z,80.20
2018-03-14T18:43:02.813Z,80.20
2018-03-14T18:45:31.088Z,82.20
2018-03-14T18:47:58.616Z,82.20
2018-03-14T18:50:26.120Z,82.50
2018-03-14T18:52:53.663Z,82.10
2018-03-14T18:55:21.167Z,82.60
2018-03-14T18:57:48.676Z,82.20
2018-03-14T19:00:16.208Z,82.60
2018-03-14T19:02:43.708Z,83.10
2018-03-14T19:05:14.549Z,83.90
2018-03-14T19:10:17.096Z,84.30
2018-03-14T19:12:44.602Z,84.30
2018-03-14T19:15:12.584Z,85.40
2018-03-14T19:17:40.112Z,85.40
2018-03-14T19:20:07.620Z,86.00
2018-03-14T19:22:35.164Z,86.50
2018-03-14T19:25:02.678Z,85.10
2018-03-14T19:27:30.240Z,86.30
2018-03-14T19:29:57.928Z,85.20
2018-03-14T19:32:26.220Z,86.00
2018-03-14T19:34:54.504Z,85.00
2018-03-14T19:37:22.796Z,85.00
2018-03-14T19:39:51.088Z,85.70
2018-03-14T19:42:19.501Z,86.00
2018-03-14T19:44:47.036Z,85.90
2018-03-14T19:47:14.916Z,86.50
2018-03-14T19:49:42.456Z,86.50
2018-03-14T19:52:09.962Z,86.50
2018-03-14T19:54:38.256Z,87.80
2018-03-14T19:57:06.552Z,87.00
2018-03-14T19:59:34.823Z,86.60
2018-03-14T20:02:02.365Z,86.60
2018-03-14T20:04:29.871Z,86.90
2018-03-14T20:06:58.168Z,87.50
2018-03-14T20:09:26.463Z,87.40
2018-03-14T20:11:53.971Z,87.40
2018-03-14T20:14:21.503Z,87.80
2018-03-14T20:16:49.767Z,87.80
2018-03-14T20:19:17.321Z,87.60
2018-03-14T20:21:44.843Z,87.70
2018-03-14T20:24:12.364Z,87.60
2018-03-14T20:26:39.895Z,88.80
2018-03-14T20:29:07.402Z,89.40
2018-03-14T20:31:34.927Z,88.70
2018-03-14T20:34:02.438Z,88.80
2018-03-14T20:36:30.443Z,89.70
2018-03-14T20:38:57.955Z,89.10
2018-03-14T20:41:26.244Z,89.20
2018-03-14T20:43:53.776Z,89.20
2018-03-14T20:46:22.040Z,89.90
2018-03-14T20:48:49.564Z,89.10
2018-03-14T20:51:17.072Z,90.00
2018-03-14T20:53:44.620Z,90.30
2018-03-14T20:56:12.170Z,90.20
2018-03-14T20:58:39.652Z,89.60
2018-03-14T21:01:07.193Z,89.30
2018-03-14T21:03:35.467Z,89.30
2018-03-14T21:06:03.061Z,89.20
2018-03-14T21:08:30.547Z,89.80
2018-03-14T21:10:58.065Z,89.80
2018-03-14T21:13:25.593Z,90.10
2018-03-14T21:15:53.102Z,90.20
2018-03-14T21:18:20.645Z,90.30
2018-03-14T21:20:48.158Z,90.40
2018-03-14T21:23:15.688Z,90.20
2018-03-14T21:25:43.224Z,90.40
2018-03-14T21:28:11.504Z,90.60
2018-03-14T21:30:39.825Z,90.70
2018-03-14T21:33:07.336Z,90.70
2018-03-14T21:35:34.839Z,91.00
2018-03-14T21:38:03.131Z,91.30
2018-03-14T21:40:30.641Z,91.20
2018-03-14T21:42:58.249Z,91.40
2018-03-14T21:45:25.697Z,90.80
2018-03-14T21:47:53.199Z,91.00
2018-03-14T21:50:21.500Z,91.10
2018-03-14T21:52:49.084Z,91.10
2018-03-14T21:55:16.591Z,91.30
2018-03-14T21:57:44.114Z,91.30
2018-03-14T22:00:12.203Z,91.10
2018-03-14T22:02:39.786Z,90.90
2018-03-14T22:05:08.035Z,91.20
2018-03-14T22:07:36.344Z,91.30
2018-03-14T22:10:04.613Z,91.00
2018-03-14T22:12:32.888Z,91.00
2018-03-14T22:15:00.425Z,91.00
2018-03-14T22:17:27.937Z,91.00
2018-03-14T22:19:55.542Z,91.00
2018-03-14T22:22:23.015Z,90.80
2018-03-14T22:24:50.524Z,91.20
2018-03-14T22:27:18.053Z,90.80
2018-03-14T22:29:45.560Z,91.30
2018-03-14T22:32:13.092Z,90.70
2018-03-14T22:34:40.611Z,90.90
2018-03-14T22:37:08.161Z,90.80
2018-03-14T22:39:35.675Z,90.60
2018-03-14T22:42:03.954Z,91.20
2018-03-14T22:44:31.492Z,90.90
2018-03-14T22:46:59.057Z,90.90
2018-03-14T22:49:27.298Z,90.50
2018-03-14T22:51:55.656Z,90.50
2018-03-14T22:54:23.163Z,90.50
2018-03-14T22:56:51.470Z,90.50
2018-03-14T22:59:18.979Z,90.50
2018-03-14T23:01:46.485Z,90.60
2018-03-14T23:04:14.780Z,90.50
2018-03-14T23:06:43.052Z,90.60
2018-03-14T23:09:10.589Z,90.50
2018-03-14T23:11:38.100Z,90.00
2018-03-14T23:14:06.374Z,90.30
2018-03-14T23:16:33.908Z,90.30
2018-03-14T23:19:01.415Z,90.00
2018-03-14T23:21:28.960Z,90.20
2018-03-14T23:23:56.464Z,90.50
2018-03-14T23:26:23.978Z,90.20
2018-03-14T23:28:51.514Z,90.40
2018-03-14T23:31:19.788Z,90.90
2018-03-14T23:33:47.324Z,90.80
2018-03-14T23:36:14.839Z,90.40
2018-03-14T23:38:43.116Z,90.50
2018-03-14T23:41:10.648Z,90.40
2018-03-14T23:43:38.153Z,90.40
2018-03-14T23:46:05.696Z,90.70
2018-03-14T23:48:33.204Z,90.70
2018-03-14T23:51:00.715Z,90.40
2018-03-14T23:53:28.250Z,90.70
2018-03-14T23:55:56.534Z,90.70
2018-03-14T23:58:24.837Z,90.60
